Time;durP1;ratioP1;P1;durP2;ratioP2;P2;SDS_P1;SDS_P2;PMS_P1;PMS_P2;Temp;Humidity;BMP_temperature;BMP_pressure;BME280_temperature;BME280_humidity;BME280_pressure;Samples;Min_cycle;Max_cycle;Signal;HPM_P1;HPM_P2
2023/08/05 00:02:23;;;;;;;9.00;6.47;;;15.60;43.00;;;;;;4963485;28;20228;-71
2023/08/05 00:04:49;;;;;;;6.57;5.63;;;15.60;42.70;;;;;;4961896;28;20255;-71
2023/08/05 00:07:14;;;;;;;8.67;6.53;;;15.70;42.70;;;;;;4964650;28;20173;-71
2023/08/05 00:09:40;;;;;;;7.00;5.43;;;15.70;42.90;;;;;;4963202;28;20194;-71
2023/08/05 00:12:06;;;;;;;6.83;6.10;;;15.70;42.70;;;;;;4961669;28;20184;-71
2023/08/05 00:14:33;;;;;;;7.47;6.70;;;15.70;42.80;;;;;;4964529;28;20240;-71
2023/08/05 00:16:59;;;;;;;7.17;6.30;;;15.70;42.50;;;;;;4961549;28;20495;-71
2023/08/05 00:19:25;;;;;;;7.27;5.67;;;15.70;43.20;;;;;;4962941;28;20457;-71
2023/08/05 00:21:50;;;;;;;9.07;6.90;;;15.80;41.90;;;;;;4962870;28;20178;-71
2023/08/05 00:24:16;;;;;;;9.83;7.10;;;15.60;43.50;;;;;;4962410;28;20515;-71
2023/08/05 00:26:41;;;;;;;9.87;7.20;;;15.60;44.30;;;;;;4961934;28;20169;-71
2023/08/05 00:29:07;;;;;;;10.83;6.70;;;15.60;45.90;;;;;;4963846;28;20202;-71
2023/08/05 00:31:33;;;;;;;9.07;7.10;;;15.60;45.30;;;;;;4961982;28;20181;-71
2023/08/05 00:33:58;;;;;;;7.00;5.80;;;15.60;45.40;;;;;;4964183;28;20188;-71
2023/08/05 00:36:24;;;;;;;8.63;6.07;;;15.50;46.20;;;;;;4967548;28;20220;-71
2023/08/05 00:38:49;;;;;;;9.60;7.10;;;15.50;44.90;;;;;;4972990;28;20287;-71
2023/08/05 00:41:15;;;;;;;8.23;5.60;;;15.60;46.20;;;;;;4973309;28;20174;-72
2023/08/05 00:43:40;;;;;;;8.57;6.30;;;15.60;46.10;;;;;;4973091;28;20180;-70
2023/08/05 00:46:08;;;;;;;9.10;6.27;;;15.60;44.60;;;;;;4973137;28;20177;-70
2023/08/05 00:48:33;;;;;;;11.90;5.87;;;15.60;44.70;;;;;;4973140;28;20193;-70
2023/08/05 00:51:00;;;;;;;9.50;6.90;;;15.60;44.60;;;;;;4971878;28;20420;-70
2023/08/05 00:53:25;;;;;;;7.60;5.97;;;15.50;45.70;;;;;;4972888;28;20181;-70
2023/08/05 00:55:53;;;;;;;8.00;6.20;;;15.60;45.00;;;;;;4971819;28;20942;-70
2023/08/05 00:58:20;;;;;;;7.80;6.00;;;15.60;44.30;;;;;;4973097;28;20299;-70
2023/08/05 01:00:46;;;;;;;6.90;5.73;;;15.50;45.40;;;;;;4971758;28;20421;-70
2023/08/05 01:03:11;;;;;;;7.47;5.80;;;15.60;45.10;;;;;;4972934;28;20782;-70
2023/08/05 01:05:38;;;;;;;7.97;5.50;;;15.60;45.40;;;;;;4973952;28;20183;-70
2023/08/05 01:08:06;;;;;;;7.13;5.17;;;15.60;45.40;;;;;;4972596;28;20459;-70
2023/08/05 01:10:31;;;;;;;7.50;5.00;;;15.60;44.80;;;;;;4972674;28;20420;-71
2023/08/05 01:12:57;;;;;;;9.80;7.40;;;15.60;44.30;;;;;;4971568;28;20424;-70
2023/08/05 01:15:22;;;;;;;8.20;6.63;;;15.60;45.60;;;;;;4973066;28;20177;-70
2023/08/05 01:17:51;;;;;;;7.03;5.80;;;15.60;44.70;;;;;;4972878;28;20255;-70
2023/08/05 01:20:18;;;;;;;8.43;6.60;;;15.60;44.30;;;;;;4973693;28;20196;-70
2023/08/05 01:22:44;;;;;;;9.40;5.37;;;15.60;44.30;;;;;;4972947;28;20416;-71
2023/08/05 01:25:29;;;;;;;9.40;7.40;;;15.60;43.50;;;;;;4971609;28;20428;-71
2023/08/05 01:27:57;;;;;;;9.83;6.87;;;15.50;42.90;;;;;;4972721;28;20267;-69
2023/08/05 01:30:24;;;;;;;6.67;5.63;;;15.50;43.30;;;;;;4971765;28;20484;-70
2023/08/05 01:32:51;;;;;;;10.90;6.80;;;15.50;44.20;;;;;;4971406;28;20416;-71
2023/08/05 01:35:20;;;;;;;7.47;6.70;;;15.40;44.70;;;;;;4972868;28;20421;-70
2023/08/05 01:37:46;;;;;;;7.30;6.60;;;15.30;44.90;;;;;;4972589;28;20567;-71
2023/08/05 01:40:13;;;;;;;6.97;6.27;;;15.30;45.40;;;;;;4975900;28;20852;-70
2023/08/05 01:42:38;;;;;;;6.77;5.17;;;15.30;46.00;;;;;;4976203;28;20503;-71
2023/08/05 01:45:05;;;;;;;12.07;6.43;;;15.30;45.60;;;;;;4976377;28;20502;-70
2023/08/05 01:47:30;;;;;;;8.80;6.07;;;15.20;45.90;;;;;;4976344;28;20192;-70
2023/08/05 01:49:56;;;;;;;6.10;5.50;;;15.20;45.80;;;;;;4974975;28;20437;-69
2023/08/05 01:52:21;;;;;;;8.90;7.30;;;15.20;46.00;;;;;;4975985;28;20207;-70
2023/08/05 01:54:47;;;;;;;9.50;6.80;;;15.20;45.90;;;;;;4976047;28;20519;-70
2023/08/05 01:57:12;;;;;;;10.43;6.77;;;15.20;45.90;;;;;;4975972;28;20296;-69
2023/08/05 01:59:38;;;;;;;9.80;6.50;;;15.20;45.90;;;;;;4975951;28;20205;-70
2023/08/05 02:02:04;;;;;;;10.03;6.10;;;15.20;45.90;;;;;;4975746;28;20682;-70
2023/08/05 02:04:29;;;;;;;9.90;7.60;;;15.20;45.90;;;;;;4975980;28;20180;-70
2023/08/05 02:06:55;;;;;;;8.60;6.77;;;15.20;45.80;;;;;;4974606;28;20730;-70
2023/08/05 02:09:20;;;;;;;7.20;6.17;;;15.20;45.90;;;;;;4974429;28;20204;-70
2023/08/05 02:11:46;;;;;;;7.17;5.90;;;15.20;45.60;;;;;;4975772;28;20183;-70
2023/08/05 02:14:12;;;;;;;6.87;5.83;;;15.20;44.70;;;;;;4974483;28;20268;-71
2023/08/05 02:16:37;;;;;;;9.10;7.20;;;15.20;45.20;;;;;;4976079;28;20185;-70
2023/08/05 02:19:03;;;;;;;8.43;5.30;;;15.20;45.90;;;;;;4975555;28;20244;-70
2023/08/05 02:21:29;;;;;;;12.63;7.53;;;15.20;45.40;;;;;;4975482;28;20549;-71
2023/08/05 02:23:55;;;;;;;11.53;5.67;;;15.20;45.60;;;;;;4975591;28;20418;-71
2023/08/05 02:26:20;;;;;;;8.63;6.97;;;15.20;45.90;;;;;;4975610;28;20416;-71
2023/08/05 02:28:46;;;;;;;8.47;7.50;;;15.20;45.90;;;;;;4975505;28;20484;-70
2023/08/05 02:31:13;;;;;;;12.10;6.90;;;15.10;46.60;;;;;;4974178;28;20244;-71
2023/08/05 02:33:39;;;;;;;9.50;6.73;;;15.10;46.40;;;;;;4974110;28;20177;-71
2023/08/05 02:36:04;;;;;;;9.63;6.27;;;15.10;47.20;;;;;;4975381;28;20759;-70
2023/08/05 02:38:30;;;;;;;8.90;6.87;;;15.10;47.20;;;;;;4973933;28;20698;-71
2023/08/05 02:40:57;;;;;;;7.60;6.80;;;15.10;47.30;;;;;;4975269;28;20260;-70
2023/08/05 02:43:22;;;;;;;7.47;5.50;;;15.10;47.10;;;;;;4973836;28;20180;-70
2023/08/05 02:45:55;;;;;;;8.37;6.60;;;15.10;46.70;;;;;;4975302;28;20417;-71
2023/08/05 02:48:21;;;;;;;9.43;6.73;;;15.10;46.70;;;;;;4975158;28;20203;-70
2023/08/05 02:50:47;;;;;;;6.87;5.70;;;15.10;46.70;;;;;;4973560;28;20806;-71
2023/08/05 02:53:13;;;;;;;10.70;5.70;;;15.20;45.90;;;;;;4974824;28;20421;-71
2023/08/05 02:55:39;;;;;;;10.10;7.40;;;15.20;45.90;;;;;;4975050;28;20475;-71
2023/08/05 02:58:04;;;;;;;7.77;6.30;;;15.10;46.20;;;;;;4974783;28;20295;-71
2023/08/05 03:00:30;;;;;;;7.53;5.70;;;15.20;45.90;;;;;;4975026;28;20181;-70
2023/08/05 03:02:55;;;;;;;8.37;5.50;;;15.10;45.90;;;;;;4974785;28;20182;-71
2023/08/05 03:05:21;;;;;;;7.80;6.37;;;15.20;46.00;;;;;;4974807;28;20217;-70
2023/08/05 03:07:46;;;;;;;9.10;7.07;;;15.20;45.60;;;;;;4974791;28;20177;-70
2023/08/05 03:10:12;;;;;;;8.30;6.83;;;15.20;45.20;;;;;;4975254;28;20236;-69
2023/08/05 03:12:38;;;;;;;7.87;6.90;;;15.20;43.60;;;;;;4974448;28;20537;-70
2023/08/05 03:15:04;;;;;;;6.40;5.80;;;15.20;45.00;;;;;;4974728;28;20420;-71
2023/08/05 03:17:29;;;;;;;10.60;6.60;;;15.20;45.90;;;;;;4974597;28;20630;-70
2023/08/05 03:19:55;;;;;;;7.80;6.33;;;15.20;43.90;;;;;;4974412;28;20535;-70
2023/08/05 03:22:21;;;;;;;5.10;4.00;;;15.20;45.00;;;;;;4972990;28;20182;-70
2023/08/05 03:24:46;;;;;;;7.50;6.20;;;15.20;44.40;;;;;;4974432;28;20173;-70
2023/08/05 03:27:12;;;;;;;6.27;5.60;;;15.20;44.60;;;;;;4974824;28;20184;-71
2023/08/05 03:29:37;;;;;;;9.50;4.33;;;15.20;45.60;;;;;;4974342;28;20201;-70
2023/08/05 03:32:03;;;;;;;7.23;4.67;;;15.30;44.10;;;;;;4974267;28;20200;-70
2023/08/05 03:34:29;;;;;;;7.37;5.73;;;15.30;43.70;;;;;;4974579;28;20252;-70
2023/08/05 03:36:55;;;;;;;9.00;6.43;;;15.30;44.20;;;;;;4974813;28;20588;-70
2023/08/05 03:39:21;;;;;;;6.40;4.93;;;15.30;43.50;;;;;;4974746;28;20441;-70
2023/08/05 03:41:46;;;;;;;6.43;4.83;;;15.30;42.90;;;;;;4973666;28;20173;-71
2023/08/05 03:44:12;;;;;;;6.77;5.67;;;15.30;43.20;;;;;;4974575;28;20728;-70
2023/08/05 03:46:38;;;;;;;7.23;5.07;;;15.20;43.70;;;;;;4974163;28;20236;-70
2023/08/05 03:49:04;;;;;;;7.23;5.67;;;15.20;44.00;;;;;;4974048;28;20207;-70
2023/08/05 03:51:30;;;;;;;8.33;5.40;;;15.30;44.00;;;;;;4972580;28;20424;-71
2023/08/05 03:53:56;;;;;;;6.10;4.67;;;15.30;44.00;;;;;;4974181;28;20417;-70
2023/08/05 03:56:24;;;;;;;8.20;5.13;;;15.30;43.60;;;;;;4974046;28;21004;-71
2023/08/05 03:58:51;;;;;;;5.50;3.90;;;15.30;44.00;;;;;;4974049;28;20204;-70
2023/08/05 04:01:17;;;;;;;7.33;5.00;;;15.20;44.40;;;;;;4973213;28;20537;-70
2023/08/05 04:03:44;;;;;;;6.40;4.97;;;15.20;43.80;;;;;;4972327;28;20417;-69
2023/08/05 04:06:11;;;;;;;6.67;5.97;;;15.20;44.90;;;;;;4973668;28;20436;-69
2023/08/05 04:08:39;;;;;;;7.03;5.30;;;15.20;45.30;;;;;;4973604;28;20441;-71
2023/08/05 04:11:05;;;;;;;6.10;4.83;;;15.20;44.50;;;;;;4972569;28;20783;-70
2023/08/05 04:13:33;;;;;;;6.57;5.27;;;15.20;44.20;;;;;;4973600;28;20420;-71
2023/08/05 04:16:03;;;;;;;7.23;5.63;;;15.20;43.70;;;;;;4973691;28;20413;-71
2023/08/05 04:18:36;;;;;;;8.27;5.20;;;15.20;43.50;;;;;;4956481;28;20508;-71
2023/08/05 04:21:04;;;;;;;7.30;4.57;;;15.20;43.60;;;;;;4972639;28;20475;-70
2023/08/05 04:23:31;;;;;;;7.20;5.43;;;15.20;42.80;;;;;;4972031;28;20425;-71
2023/08/05 04:25:59;;;;;;;5.17;4.67;;;15.20;43.30;;;;;;4973379;28;20483;-70
2023/08/05 04:28:25;;;;;;;6.40;5.33;;;15.10;45.10;;;;;;4973348;28;20437;-71
2023/08/05 04:30:52;;;;;;;6.63;4.93;;;15.10;45.90;;;;;;4972148;28;20437;-70
2023/08/05 04:33:17;;;;;;;7.57;6.53;;;15.10;45.80;;;;;;4973022;28;20421;-70
2023/08/05 04:35:49;;;;;;;6.63;6.00;;;15.10;45.60;;;;;;4973340;28;20420;-71
2023/08/05 04:38:15;;;;;;;7.53;6.07;;;15.20;45.90;;;;;;4971914;28;20259;-70
2023/08/05 04:40:41;;;;;;;8.20;6.50;;;15.20;45.20;;;;;;4971975;28;20797;-70
2023/08/05 04:43:07;;;;;;;12.27;6.27;;;15.20;45.20;;;;;;4971767;28;20436;-70
2023/08/05 04:45:34;;;;;;;6.60;5.30;;;15.30;44.90;;;;;;4973111;28;20417;-70
2023/08/05 04:47:59;;;;;;;6.80;6.00;;;15.30;45.40;;;;;;4973043;28;20573;-71
2023/08/05 04:50:25;;;;;;;7.17;5.07;;;15.30;44.80;;;;;;4973112;28;20457;-71
2023/08/05 04:52:50;;;;;;;6.00;5.17;;;15.40;43.60;;;;;;4971707;28;20177;-71
2023/08/05 04:55:16;;;;;;;8.40;5.97;;;15.40;42.90;;;;;;4973202;28;20566;-71
2023/08/05 04:57:42;;;;;;;6.93;6.00;;;15.40;42.50;;;;;;4971712;28;20303;-71
2023/08/05 05:00:08;;;;;;;6.50;5.40;;;15.40;41.30;;;;;;4973478;28;20173;-71
2023/08/05 05:02:34;;;;;;;8.63;5.20;;;15.30;42.90;;;;;;4972739;28;20462;-71
2023/08/05 05:05:00;;;;;;;9.33;6.97;;;15.40;43.70;;;;;;4973008;28;20440;-71
2023/08/05 05:07:26;;;;;;;7.17;5.60;;;15.50;42.70;;;;;;4973044;28;20200;-72
2023/08/05 05:09:51;;;;;;;7.47;6.00;;;15.40;42.10;;;;;;4971715;28;20437;-69
2023/08/05 05:12:17;;;;;;;10.70;5.77;;;15.40;42.60;;;;;;4972953;28;20254;-69
2023/08/05 05:14:44;;;;;;;8.03;5.10;;;15.30;42.50;;;;;;4977390;28;20654;-68
2023/08/05 05:17:10;;;;;;;6.40;4.40;;;15.20;43.40;;;;;;4976704;28;20204;-70
2023/08/05 05:19:35;;;;;;;7.63;6.83;;;15.20;45.00;;;;;;4975283;28;20821;-69
2023/08/05 05:22:01;;;;;;;7.50;6.70;;;15.30;43.90;;;;;;4975433;28;20220;-70
2023/08/05 05:24:29;;;;;;;5.90;4.23;;;15.40;43.70;;;;;;4975498;28;20173;-70
2023/08/05 05:26:57;;;;;;;5.47;4.53;;;15.50;41.50;;;;;;4976717;28;20228;-71
2023/08/05 05:29:23;;;;;;;7.00;5.23;;;15.60;41.80;;;;;;4976485;28;20432;-70
2023/08/05 05:31:48;;;;;;;8.17;5.77;;;15.60;40.70;;;;;;4976412;28;20408;-70
2023/08/05 05:34:14;;;;;;;7.23;6.33;;;15.80;40.30;;;;;;4975384;28;20420;-69
2023/08/05 05:36:40;;;;;;;9.00;5.87;;;16.10;36.90;;;;;;4975086;28;20934;-69
2023/08/05 05:39:05;;;;;;;8.03;6.23;;;16.50;35.50;;;;;;4976283;28;20209;-71
2023/08/05 05:41:31;;;;;;;5.17;4.30;;;16.80;32.00;;;;;;4976169;28;20184;-70
2023/08/05 05:43:58;;;;;;;6.07;4.60;;;17.10;28.50;;;;;;4976309;28;20181;-71
2023/08/05 05:46:25;;;;;;;5.40;4.37;;;17.40;26.10;;;;;;4975041;28;20181;-71
2023/08/05 05:48:50;;;;;;;6.43;5.40;;;17.40;25.50;;;;;;4974821;28;20460;-71
2023/08/05 05:51:16;;;;;;;9.23;4.73;;;17.60;24.00;;;;;;4976233;28;20420;-71
2023/08/05 05:53:42;;;;;;;4.60;3.87;;;17.40;23.30;;;;;;4975916;28;20179;-70
2023/08/05 05:56:08;;;;;;;6.40;5.43;;;17.30;23.40;;;;;;4976095;28;20169;-70
2023/08/05 05:58:35;;;;;;;7.07;4.80;;;17.20;24.10;;;;;;4975827;28;20490;-70
2023/08/05 06:01:01;;;;;;;12.80;5.47;;;17.10;23.80;;;;;;4976023;28;20169;-69
2023/08/05 06:03:27;;;;;;;8.60;5.57;;;16.80;24.50;;;;;;4974423;28;20467;-70
2023/08/05 06:05:53;;;;;;;7.07;5.43;;;16.70;25.20;;;;;;4975927;28;20420;-69
2023/08/05 06:08:18;;;;;;;11.30;4.80;;;16.60;25.40;;;;;;4974809;28;20264;-69
2023/08/05 06:10:45;;;;;;;8.00;5.00;;;16.40;24.50;;;;;;4976028;28;20424;-70
2023/08/05 06:13:10;;;;;;;8.77;6.67;;;16.30;26.90;;;;;;4975551;28;20646;-70
2023/08/05 06:15:40;;;;;;;8.20;6.33;;;16.20;26.00;;;;;;4974441;28;20565;-70
2023/08/05 06:18:07;;;;;;;8.90;5.37;;;16.10;25.80;;;;;;4974358;28;20394;-70
2023/08/05 06:20:33;;;;;;;6.87;5.60;;;16.20;26.20;;;;;;4975830;28;20404;-68
2023/08/05 06:22:58;;;;;;;9.03;6.00;;;16.30;26.90;;;;;;4975982;28;20468;-71
2023/08/05 06:25:24;;;;;;;7.50;5.80;;;16.20;26.90;;;;;;4973907;28;20240;-69
2023/08/05 06:27:50;;;;;;;7.00;5.90;;;16.00;26.90;;;;;;4974125;28;20276;-71
2023/08/05 06:30:15;;;;;;;9.73;6.63;;;16.10;26.80;;;;;;4975802;28;20177;-70
2023/08/05 06:32:41;;;;;;;8.70;6.10;;;16.20;26.60;;;;;;4975536;28;20185;-71
2023/08/05 06:35:06;;;;;;;11.47;6.30;;;16.40;27.00;;;;;;4975556;28;20647;-70
2023/08/05 06:37:32;;;;;;;8.57;5.80;;;16.50;27.10;;;;;;4974849;28;20594;-71
2023/08/05 06:40:00;;;;;;;7.17;6.47;;;16.40;27.00;;;;;;4976571;28;20433;-70
2023/08/05 06:42:29;;;;;;;8.53;6.07;;;16.30;27.40;;;;;;4976478;28;20184;-70
2023/08/05 06:44:54;;;;;;;7.40;5.37;;;16.40;27.50;;;;;;4977106;28;20408;-73
2023/08/05 06:47:20;;;;;;;7.83;4.80;;;16.70;26.80;;;;;;4976022;28;20425;-70
2023/08/05 06:49:46;;;;;;;10.30;4.90;;;16.90;26.60;;;;;;4975329;28;20604;-70
2023/08/05 06:52:11;;;;;;;7.03;4.63;;;17.50;25.50;;;;;;4975128;28;20267;-70
2023/08/05 06:54:37;;;;;;;9.70;4.20;;;18.00;20.70;;;;;;4975005;28;20621;-71
2023/08/05 06:57:03;;;;;;;7.03;5.50;;;18.10;19.20;;;;;;4974816;28;20240;-70
2023/08/05 06:59:28;;;;;;;6.50;4.83;;;18.10;17.70;;;;;;4974832;28;20237;-69
2023/08/05 07:01:54;;;;;;;5.37;4.40;;;17.80;18.50;;;;;;4969033;28;20216;-70
2023/08/05 07:04:19;;;;;;;6.57;5.07;;;17.50;19.80;;;;;;4971353;28;20185;-70
2023/08/05 07:06:45;;;;;;;5.90;4.73;;;17.50;20.70;;;;;;4970905;28;20181;-70
2023/08/05 07:09:11;;;;;;;7.63;5.30;;;17.60;19.60;;;;;;4970450;28;20635;-70
2023/08/05 07:11:37;;;;;;;5.20;4.60;;;17.40;19.10;;;;;;4970956;28;20200;-70
2023/08/05 07:14:02;;;;;;;5.90;4.60;;;17.70;18.00;;;;;;4970674;28;20436;-70
2023/08/05 07:16:28;;;;;;;6.97;4.47;;;17.90;16.70;;;;;;4969197;28;20189;-70
2023/08/05 07:18:54;;;;;;;6.43;4.70;;;18.20;15.90;;;;;;4971273;28;20869;-71
2023/08/05 07:21:19;;;;;;;5.50;4.63;;;18.70;15.10;;;;;;4969240;28;20243;-70
2023/08/05 07:23:45;;;;;;;5.80;4.80;;;19.30;11.60;;;;;;4970547;28;20632;-70
2023/08/05 07:26:10;;;;;;;10.37;4.47;;;19.80;11.00;;;;;;4970969;28;20185;-69
2023/08/05 07:28:36;;;;;;;9.23;5.70;;;20.30;8.90;;;;;;4966380;28;20212;-69
2023/08/05 07:31:03;;;;;;;7.63;4.67;;;20.10;6.70;;;;;;4968316;28;20189;-71
2023/08/05 07:33:30;;;;;;;5.57;5.00;;;19.80;8.80;;;;;;4970543;28;20215;-70
2023/08/05 07:35:56;;;;;;;6.80;4.67;;;19.60;8.70;;;;;;4969474;28;20433;-69
2023/08/05 07:38:27;;;;;;;5.73;5.13;;;19.70;8.80;;;;;;4969694;28;20867;-71
2023/08/05 07:40:55;;;;;;;5.50;4.63;;;19.70;7.40;;;;;;4969312;28;20439;-72
2023/08/05 07:43:24;;;;;;;6.23;5.30;;;19.10;9.50;;;;;;4970441;28;20568;-69
2023/08/05 07:45:50;;;;;;;7.57;5.70;;;18.80;11.30;;;;;;4968733;28;20844;-70
2023/08/05 07:48:16;;;;;;;8.97;6.03;;;18.40;12.70;;;;;;4968593;28;20826;-71
2023/08/05 07:50:42;;;;;;;8.40;5.83;;;18.30;15.40;;;;;;4969983;28;20439;-69
2023/08/05 07:53:07;;;;;;;7.27;4.83;;;18.10;15.20;;;;;;4969431;28;20436;-71
2023/08/05 07:55:35;;;;;;;8.63;4.53;;;18.20;15.30;;;;;;4969936;28;20216;-71
2023/08/05 07:58:01;;;;;;;5.10;4.60;;;18.30;15.40;;;;;;4970375;28;20212;-69
2023/08/05 08:00:27;;;;;;;5.97;5.37;;;18.40;14.10;;;;;;4969637;28;20439;-70
2023/08/05 08:02:52;;;;;;;7.47;4.83;;;18.30;14.20;;;;;;4988213;28;20813;-70
2023/08/05 08:05:19;;;;;;;8.83;5.37;;;18.10;14.90;;;;;;4969207;28;20440;-70
2023/08/05 08:07:46;;;;;;;7.60;4.20;;;18.20;15.30;;;;;;4969433;28;20217;-68
2023/08/05 08:10:13;;;;;;;5.90;4.63;;;18.60;14.50;;;;;;4965884;28;20476;-70
2023/08/05 08:12:39;;;;;;;7.23;6.53;;;19.00;13.90;;;;;;4950644;28;20488;-68
2023/08/05 08:15:05;;;;;;;6.80;6.10;;;19.50;11.70;;;;;;4967767;28;20433;-69
2023/08/05 08:17:31;;;;;;;7.67;5.13;;;20.10;7.60;;;;;;4968929;28;20990;-69
2023/08/05 08:19:56;;;;;;;5.53;4.90;;;20.50;5.50;;;;;;4969647;28;20460;-69
2023/08/05 08:22:22;;;;;;;4.33;3.93;;;20.60;6.50;;;;;;4967641;28;20185;-68
2023/08/05 08:24:47;;;;;;;12.23;4.93;;;21.00;5.20;;;;;;4964968;28;20615;-75
2023/08/05 08:27:13;;;;;;;5.57;5.07;;;21.30;4.50;;;;;;4984605;28;20260;-68
2023/08/05 08:29:38;;;;;;;4.53;4.13;;;21.80;1.70;;;;;;4967557;28;20201;-69
2023/08/05 08:32:04;;;;;;;6.00;5.40;;;22.60;1.00;;;;;;4969763;28;20177;-69
2023/08/05 08:34:30;;;;;;;6.80;6.20;;;24.10;1.00;;;;;;4969809;28;20177;-68
2023/08/05 08:36:55;;;;;;;6.80;6.20;;;24.50;1.00;;;;;;4967718;28;20200;-69
2023/08/05 08:39:21;;;;;;;7.80;7.00;;;25.50;1.00;;;;;;4969882;28;20197;-69
2023/08/05 08:41:48;;;;;;;6.07;5.47;;;25.60;1.00;;;;;;4968963;28;20196;-69
2023/08/05 08:44:16;;;;;;;7.03;6.13;;;25.10;1.00;;;;;;4969463;28;20272;-69
2023/08/05 08:46:43;;;;;;;8.30;5.80;;;23.90;1.00;;;;;;4969663;28;20842;-72
2023/08/05 08:49:11;;;;;;;6.10;5.23;;;22.60;1.00;;;;;;4969136;28;20853;-69
2023/08/05 08:51:37;;;;;;;6.10;5.50;;;21.60;1.00;;;;;;4967316;28;20954;-69
2023/08/05 08:54:03;;;;;;;5.73;4.43;;;21.10;2.10;;;;;;4969335;28;20823;-72
2023/08/05 08:56:30;;;;;;;5.33;4.83;;;20.30;3.60;;;;;;4969368;28;20812;-69
2023/08/05 08:58:56;;;;;;;5.70;5.10;;;19.90;4.60;;;;;;4967420;28;21290;-68
2023/08/05 09:01:22;;;;;;;6.17;5.20;;;19.80;4.70;;;;;;4969148;28;20428;-71
2023/08/05 09:03:51;;;;;;;6.47;4.90;;;19.30;7.10;;;;;;4968171;28;20193;-68
2023/08/05 09:06:21;;;;;;;7.43;4.43;;;19.40;7.20;;;;;;4968662;28;20443;-69
2023/08/05 09:08:47;;;;;;;5.73;5.00;;;19.40;7.20;;;;;;4968884;28;20453;-69
2023/08/05 09:11:14;;;;;;;7.07;4.67;;;19.50;7.20;;;;;;4968450;28;20801;-69
2023/08/05 09:13:40;;;;;;;5.60;5.10;;;20.10;5.10;;;;;;4968904;28;20846;-69
2023/08/05 09:16:06;;;;;;;6.10;5.50;;;20.60;3.70;;;;;;4968892;28;20432;-71
2023/08/05 09:18:31;;;;;;;5.23;4.17;;;21.10;3.40;;;;;;4968935;28;20341;-70
2023/08/05 09:21:00;;;;;;;6.83;5.37;;;21.20;1.90;;;;;;4968746;28;20771;-69
2023/08/05 09:23:26;;;;;;;7.00;5.60;;;21.30;1.00;;;;;;4967093;28;20667;-69
2023/08/05 09:25:51;;;;;;;7.37;5.70;;;21.40;1.00;;;;;;4968619;28;20448;-71
2023/08/05 09:28:31;;;;;;;5.50;4.87;;;21.20;1.00;;;;;;4968505;28;20197;-69
2023/08/05 09:31:12;;;;;;;5.47;4.93;;;21.40;1.00;;;;;;4969244;28;20339;-70
2023/08/05 09:33:39;;;;;;;5.47;5.03;;;21.20;1.00;;;;;;4967574;28;20975;-69
2023/08/05 09:36:12;;;;;;;6.40;4.50;;;20.90;1.00;;;;;;4948465;29;21218;-69
2023/08/05 09:38:45;;;;;;;8.60;5.60;;;20.90;1.00;;;;;;4949228;28;20469;-69
2023/08/05 09:41:11;;;;;;;5.97;5.47;;;21.00;1.00;;;;;;4963858;28;20430;-69
2023/08/05 09:43:43;;;;;;;6.20;5.70;;;21.20;1.00;;;;;;4964045;28;20801;-73
2023/08/05 09:46:12;;;;;;;6.90;5.97;;;21.30;1.00;;;;;;4948560;29;20444;-71
2023/08/05 09:48:44;;;;;;;5.33;4.83;;;21.60;1.00;;;;;;4969164;28;20453;-71
2023/08/05 09:51:15;;;;;;;6.13;5.73;;;22.00;1.00;;;;;;4972437;28;20495;-69
2023/08/05 09:53:42;;;;;;;5.83;5.43;;;22.30;1.00;;;;;;4972932;28;20914;-69
2023/08/05 09:56:10;;;;;;;6.33;5.93;;;22.60;1.00;;;;;;4970892;28;20436;-69
2023/08/05 09:58:37;;;;;;;6.13;5.60;;;22.30;1.00;;;;;;4972390;28;20471;-69
2023/08/05 10:01:07;;;;;;;6.83;6.43;;;22.60;1.00;;;;;;4974908;28;21024;-69
2023/08/05 10:03:37;;;;;;;5.73;5.43;;;22.60;1.00;;;;;;4975621;28;20779;-69
2023/08/05 10:06:08;;;;;;;6.97;6.30;;;22.70;1.00;;;;;;4975862;28;20424;-72
2023/08/05 10:08:39;;;;;;;6.93;6.20;;;23.30;1.00;;;;;;4975893;28;20843;-70
2023/08/05 10:11:06;;;;;;;6.80;6.40;;;24.30;1.00;;;;;;4975933;28;20416;-70
2023/08/05 10:13:41;;;;;;;7.03;6.60;;;24.30;1.00;;;;;;4975552;28;20814;-70
2023/08/05 10:16:08;;;;;;;7.50;6.93;;;24.40;1.00;;;;;;4975709;28;20471;-69
2023/08/05 10:18:35;;;;;;;7.33;6.60;;;23.90;1.00;;;;;;4975445;28;20896;-71
2023/08/05 10:21:04;;;;;;;7.90;7.30;;;24.50;1.00;;;;;;4975619;28;20448;-69
2023/08/05 10:23:34;;;;;;;7.20;6.80;;;24.90;1.00;;;;;;4975339;28;20405;-69
2023/08/05 10:26:01;;;;;;;7.30;6.80;;;25.20;1.00;;;;;;4972679;28;20855;-70
2023/08/05 10:28:38;;;;;;;8.30;7.57;;;24.50;1.00;;;;;;4964679;28;20913;-70
2023/08/05 10:31:25;;;;;;;9.13;6.57;;;24.30;1.00;;;;;;4974165;28;20455;-69
2023/08/05 10:34:16;;;;;;;7.53;7.03;;;23.90;1.00;;;;;;4974695;28;20496;-70
2023/08/05 10:36:48;;;;;;;7.77;7.27;;;23.60;1.00;;;;;;4973947;28;20781;-73
2023/08/05 10:39:35;;;;;;;7.53;7.03;;;23.90;1.00;;;;;;4973631;28;21056;-69
2023/08/05 10:42:28;;;;;;;7.30;6.70;;;23.70;1.00;;;;;;4972989;28;20440;-69
2023/08/05 10:44:54;;;;;;;8.03;7.53;;;24.10;1.00;;;;;;4956536;28;20424;-69
2023/08/05 10:47:23;;;;;;;8.27;7.77;;;24.00;1.00;;;;;;4961309;28;20412;-69
2023/08/05 10:49:54;;;;;;;7.20;6.80;;;24.30;1.00;;;;;;4973569;28;20954;-68
2023/08/05 10:52:20;;;;;;;7.17;6.77;;;24.20;1.00;;;;;;4974849;28;20427;-69
2023/08/05 10:54:47;;;;;;;7.83;7.33;;;24.50;1.00;;;;;;4974833;28;20405;-69
2023/08/05 10:57:34;;;;;;;8.60;8.20;;;25.10;1.00;;;;;;4974830;28;20429;-71
2023/08/05 11:00:00;;;;;;;9.13;8.63;;;25.40;1.00;;;;;;4974290;28;20421;-69
2023/08/05 11:02:26;;;;;;;8.80;8.30;;;25.80;1.00;;;;;;4974612;28;20409;-69
2023/08/05 11:05:08;;;;;;;9.37;8.97;;;26.10;1.00;;;;;;4974619;28;20500;-69
2023/08/05 11:07:37;;;;;;;10.00;9.30;;;25.50;1.00;;;;;;4966261;28;20420;-71
2023/08/05 11:10:06;;;;;;;9.30;8.80;;;25.70;1.00;;;;;;4974421;28;20499;-70
2023/08/05 11:12:32;;;;;;;8.70;8.30;;;26.00;1.00;;;;;;4974263;28;20439;-70
2023/08/05 11:14:59;;;;;;;9.57;9.07;;;26.40;1.00;;;;;;4974612;28;20425;-70
2023/08/05 11:17:25;;;;;;;8.70;8.20;;;25.70;1.00;;;;;;4974446;28;20232;-69
2023/08/05 11:19:50;;;;;;;10.10;9.50;;;25.70;1.00;;;;;;4973784;28;20514;-71
2023/08/05 11:22:27;;;;;;;9.60;9.00;;;26.20;1.00;;;;;;4966344;28;20276;-72
2023/08/05 11:24:59;;;;;;;9.97;9.47;;;25.90;1.00;;;;;;4970484;28;20424;-72
2023/08/05 11:27:37;;;;;;;9.43;8.83;;;25.80;1.00;;;;;;4972136;28;20790;-70
2023/08/05 11:30:12;;;;;;;10.00;9.50;;;26.10;1.00;;;;;;4974327;28;20503;-71
2023/08/05 11:33:03;;;;;;;10.07;9.57;;;26.80;1.00;;;;;;4973940;28;20421;-71
2023/08/05 11:35:29;;;;;;;10.53;9.93;;;27.10;1.00;;;;;;4970605;28;20440;-70
2023/08/05 11:37:55;;;;;;;9.80;9.40;;;26.80;1.00;;;;;;4973707;28;20852;-70
2023/08/05 11:40:22;;;;;;;9.70;9.20;;;26.60;1.00;;;;;;4973921;28;20689;-71
2023/08/05 11:42:47;;;;;;;9.30;8.90;;;26.10;1.00;;;;;;4972454;28;20181;-69
2023/08/05 11:45:14;;;;;;;9.70;9.10;;;26.10;1.00;;;;;;4973883;28;20428;-70
2023/08/05 11:47:41;;;;;;;9.00;8.50;;;26.50;1.00;;;;;;4973902;28;20231;-70
2023/08/05 11:50:08;;;;;;;9.47;8.87;;;26.10;1.00;;;;;;4974118;28;20860;-70
2023/08/05 11:52:34;;;;;;;9.30;8.90;;;25.80;1.00;;;;;;4973533;28;20417;-69
2023/08/05 11:55:01;;;;;;;9.23;8.83;;;25.50;1.00;;;;;;4974239;28;20995;-71
2023/08/05 11:57:27;;;;;;;9.87;9.37;;;24.90;1.00;;;;;;4973745;28;20193;-71
2023/08/05 11:59:55;;;;;;;9.30;8.80;;;24.80;1.00;;;;;;4973503;28;20954;-70
2023/08/05 12:02:24;;;;;;;8.90;8.50;;;24.70;1.00;;;;;;4973412;28;20506;-71
2023/08/05 12:04:51;;;;;;;8.83;8.43;;;24.50;1.00;;;;;;4972181;28;20505;-70
2023/08/05 12:07:20;;;;;;;8.40;8.00;;;24.40;1.00;;;;;;4973669;28;20413;-70
2023/08/05 12:10:02;;;;;;;9.50;8.80;;;24.40;1.00;;;;;;4973488;28;20527;-71
2023/08/05 12:12:28;;;;;;;8.70;8.30;;;24.40;1.00;;;;;;4973400;28;20409;-69
2023/08/05 12:15:11;;;;;;;9.70;9.00;;;24.10;1.00;;;;;;4969936;28;20487;-71
2023/08/05 12:17:37;;;;;;;8.83;8.43;;;23.90;1.00;;;;;;4972518;28;20712;-69
2023/08/05 12:20:10;;;;;;;9.07;8.63;;;23.90;1.00;;;;;;4973106;28;20844;-69
2023/08/05 12:22:36;;;;;;;8.90;8.40;;;24.00;1.00;;;;;;4987414;28;20432;-69
2023/08/05 12:25:02;;;;;;;9.03;8.40;;;24.30;1.00;;;;;;4973113;28;20467;-69
2023/08/05 12:27:28;;;;;;;9.10;8.60;;;24.30;1.00;;;;;;4973266;28;20423;-69
2023/08/05 12:29:53;;;;;;;9.37;8.87;;;24.50;1.00;;;;;;4972804;28;20452;-70
2023/08/05 12:32:19;;;;;;;8.10;7.80;;;24.60;1.00;;;;;;4972744;28;20656;-70
2023/08/05 12:34:44;;;;;;;9.13;8.63;;;24.50;1.00;;;;;;4973312;28;20675;-69
2023/08/05 12:37:10;;;;;;;9.20;8.70;;;24.30;1.00;;;;;;4972851;28;20196;-69
2023/08/05 12:39:35;;;;;;;8.53;8.13;;;24.30;1.00;;;;;;4973094;28;20247;-69
2023/08/05 12:42:01;;;;;;;9.60;9.10;;;24.40;1.00;;;;;;4972663;28;20228;-69
2023/08/05 12:44:27;;;;;;;8.90;8.40;;;24.40;1.00;;;;;;4972484;28;20185;-69
2023/08/05 12:46:52;;;;;;;8.80;8.20;;;24.50;1.00;;;;;;4972595;28;20188;-72
2023/08/05 12:49:18;;;;;;;8.20;7.80;;;24.30;1.00;;;;;;4972903;28;20205;-69
2023/08/05 12:51:44;;;;;;;8.27;7.77;;;24.00;1.00;;;;;;4972717;28;20224;-71